sensor_id;sensor_type;location;lat;lon;timestamp;pressure;altitude;pressure_sealevel;temperature;humidity
20752;BME280;10536;51.582;5.016;2022-09-13T00:04:17;101025.84;;;21.77;100.00
20752;BME280;10536;51.582;5.016;2022-09-13T00:09:17;101031.63;;;21.84;100.00
20752;BME280;10536;51.582;5.016;2022-09-13T00:14:17;101030.66;;;21.85;100.00
20752;BME280;10536;51.582;5.016;2022-09-13T00:19:18;101015.94;;;21.97;100.00
20752;BME280;10536;51.582;5.016;2022-09-13T00:24:18;101008.03;;;22.13;100.00
20752;BME280;10536;51.582;5.016;2022-09-13T00:29:19;100999.22;;;22.28;100.00
20752;BME280;10536;51.582;5.016;2022-09-13T00:34:19;101004.50;;;22.28;100.00
20752;BME280;10536;51.582;5.016;2022-09-13T00:39:20;100998.94;;;22.02;100.00
20752;BME280;10536;51.582;5.016;2022-09-13T00:44:58;100988.50;;;22.31;100.00
20752;BME280;10536;51.582;5.016;2022-09-13T00:55:36;100982.78;;;22.24;100.00
20752;BME280;10536;51.582;5.016;2022-09-13T01:00:38;100986.09;;;22.42;100.00
20752;BME280;10536;51.582;5.016;2022-09-13T01:05:45;100980.91;;;22.41;100.00
20752;BME280;10536;51.582;5.016;2022-09-13T01:10:49;100986.22;;;21.95;100.00
20752;BME280;10536;51.582;5.016;2022-09-13T01:15:51;100983.63;;;22.25;100.00
20752;BME280;10536;51.582;5.016;2022-09-13T01:26:46;100985.13;;;22.29;100.00
20752;BME280;10536;51.582;5.016;2022-09-13T01:47:56;100959.81;;;22.26;100.00
20752;BME280;10536;51.582;5.016;2022-09-13T01:53:03;100956.56;;;22.21;100.00
20752;BME280;10536;51.582;5.016;2022-09-13T01:58:16;100957.78;;;22.16;100.00
20752;BME280;10536;51.582;5.016;2022-09-13T02:03:30;100962.81;;;22.04;100.00
20752;BME280;10536;51.582;5.016;2022-09-13T02:08:42;100959.63;;;21.99;100.00
20752;BME280;10536;51.582;5.016;2022-09-13T02:14:05;100960.69;;;22.11;100.00
20752;BME280;10536;51.582;5.016;2022-09-13T02:19:14;100962.31;;;21.83;100.00
20752;BME280;10536;51.582;5.016;2022-09-13T02:24:25;100977.88;;;22.02;100.00
20752;BME280;10536;51.582;5.016;2022-09-13T02:29:28;100975.91;;;22.06;100.00
20752;BME280;10536;51.582;5.016;2022-09-13T02:34:38;100984.78;;;22.19;100.00
20752;BME280;10536;51.582;5.016;2022-09-13T02:39:45;100984.97;;;22.16;100.00
20752;BME280;10536;51.582;5.016;2022-09-13T02:44:52;100992.78;;;22.18;100.00
20752;BME280;10536;51.582;5.016;2022-09-13T03:00:04;100984.88;;;22.18;100.00
20752;BME280;10536;51.582;5.016;2022-09-13T03:05:05;100978.06;;;22.30;100.00
20752;BME280;10536;51.582;5.016;2022-09-13T03:10:08;100991.16;;;22.31;100.00
20752;BME280;10536;51.582;5.016;2022-09-13T03:21:11;100979.94;;;22.42;100.00
20752;BME280;10536;51.582;5.016;2022-09-13T03:26:24;100985.72;;;22.48;100.00
20752;BME280;10536;51.582;5.016;2022-09-13T03:31:33;100982.88;;;22.37;100.00
20752;BME280;10536;51.582;5.016;2022-09-13T03:42:15;100971.59;;;22.64;100.00
20752;BME280;10536;51.582;5.016;2022-09-13T03:47:18;100976.00;;;22.49;100.00
20752;BME280;10536;51.582;5.016;2022-09-13T03:52:19;100974.78;;;22.69;100.00
20752;BME280;10536;51.582;5.016;2022-09-13T03:57:20;100984.69;;;22.80;100.00
20752;BME280;10536;51.582;5.016;2022-09-13T04:02:23;100996.50;;;21.99;100.00
20752;BME280;10536;51.582;5.016;2022-09-13T04:07:24;100988.41;;;21.72;100.00
20752;BME280;10536;51.582;5.016;2022-09-13T04:12:25;100996.22;;;21.58;100.00
20752;BME280;10536;51.582;5.016;2022-09-13T04:17:27;100985.59;;;21.75;100.00
20752;BME280;10536;51.582;5.016;2022-09-13T04:22:27;100997.19;;;21.57;100.00
20752;BME280;10536;51.582;5.016;2022-09-13T04:27:28;101001.97;;;21.80;100.00
20752;BME280;10536;51.582;5.016;2022-09-13T04:32:29;101003.47;;;21.54;100.00
20752;BME280;10536;51.582;5.016;2022-09-13T04:37:29;101010.16;;;21.60;100.00
20752;BME280;10536;51.582;5.016;2022-09-13T04:47:30;101011.34;;;21.70;100.00
20752;BME280;10536;51.582;5.016;2022-09-13T04:52:31;101006.88;;;21.56;100.00
20752;BME280;10536;51.582;5.016;2022-09-13T04:57:31;101004.63;;;21.64;100.00
20752;BME280;10536;51.582;5.016;2022-09-13T05:02:31;101005.88;;;21.73;100.00
20752;BME280;10536;51.582;5.016;2022-09-13T05:07:32;101009.31;;;21.59;100.00
20752;BME280;10536;51.582;5.016;2022-09-13T05:12:32;101007.28;;;21.33;100.00
20752;BME280;10536;51.582;5.016;2022-09-13T05:17:33;101017.06;;;21.46;100.00
20752;BME280;10536;51.582;5.016;2022-09-13T05:22:33;101010.91;;;21.62;100.00
20752;BME280;10536;51.582;5.016;2022-09-13T05:27:33;101018.50;;;21.52;100.00
20752;BME280;10536;51.582;5.016;2022-09-13T05:32:34;101017.34;;;21.88;100.00
20752;BME280;10536;51.582;5.016;2022-09-13T05:37:34;101018.91;;;21.76;100.00
20752;BME280;10536;51.582;5.016;2022-09-13T05:42:35;101028.16;;;22.14;100.00
20752;BME280;10536;51.582;5.016;2022-09-13T05:47:35;101020.69;;;22.06;100.00
20752;BME280;10536;51.582;5.016;2022-09-13T05:52:36;101023.91;;;22.41;100.00
20752;BME280;10536;51.582;5.016;2022-09-13T05:57:36;101026.72;;;22.08;100.00
20752;BME280;10536;51.582;5.016;2022-09-13T06:02:36;101024.94;;;22.39;100.00
20752;BME280;10536;51.582;5.016;2022-09-13T06:07:43;101022.19;;;22.26;100.00
20752;BME280;10536;51.582;5.016;2022-09-13T06:12:43;101022.31;;;22.39;100.00
20752;BME280;10536;51.582;5.016;2022-09-13T06:17:44;101016.13;;;22.54;100.00
20752;BME280;10536;51.582;5.016;2022-09-13T06:22:47;101023.94;;;22.70;100.00
20752;BME280;10536;51.582;5.016;2022-09-13T06:27:47;101027.09;;;22.32;100.00
20752;BME280;10536;51.582;5.016;2022-09-13T06:32:48;101016.38;;;22.50;100.00
20752;BME280;10536;51.582;5.016;2022-09-13T06:37:57;101021.91;;;22.75;100.00
20752;BME280;10536;51.582;5.016;2022-09-13T06:42:58;101021.13;;;23.02;100.00
20752;BME280;10536;51.582;5.016;2022-09-13T06:47:58;101020.56;;;23.11;100.00
20752;BME280;10536;51.582;5.016;2022-09-13T06:52:59;101019.81;;;22.80;100.00
20752;BME280;10536;51.582;5.016;2022-09-13T06:57:59;101017.19;;;23.09;100.00
20752;BME280;10536;51.582;5.016;2022-09-13T07:02:59;101017.72;;;23.29;100.00
20752;BME280;10536;51.582;5.016;2022-09-13T07:08:00;101010.16;;;23.37;100.00
20752;BME280;10536;51.582;5.016;2022-09-13T07:13:00;101013.81;;;23.07;100.00
20752;BME280;10536;51.582;5.016;2022-09-13T07:18:01;101016.00;;;23.42;100.00
20752;BME280;10536;51.582;5.016;2022-09-13T07:23:01;101029.56;;;23.77;100.00
20752;BME280;10536;51.582;5.016;2022-09-13T07:28:01;101028.03;;;23.88;100.00
20752;BME280;10536;51.582;5.016;2022-09-13T07:33:02;101034.06;;;24.42;100.00
20752;BME280;10536;51.582;5.016;2022-09-13T07:38:02;101027.22;;;24.78;100.00
20752;BME280;10536;51.582;5.016;2022-09-13T07:43:02;101027.22;;;24.78;100.00
20752;BME280;10536;51.582;5.016;2022-09-13T07:48:03;101027.00;;;24.94;100.00
20752;BME280;10536;51.582;5.016;2022-09-13T07:53:03;101037.63;;;25.18;100.00
20752;BME280;10536;51.582;5.016;2022-09-13T07:58:04;101044.63;;;25.19;100.00
20752;BME280;10536;51.582;5.016;2022-09-13T08:03:04;101034.84;;;25.70;100.00
20752;BME280;10536;51.582;5.016;2022-09-13T08:08:05;101041.16;;;25.56;100.00
20752;BME280;10536;51.582;5.016;2022-09-13T08:13:06;101042.06;;;25.31;100.00
20752;BME280;10536;51.582;5.016;2022-09-13T08:18:06;101042.38;;;25.87;100.00
20752;BME280;10536;51.582;5.016;2022-09-13T08:23:09;101047.34;;;25.68;100.00
20752;BME280;10536;51.582;5.016;2022-09-13T08:28:14;101050.94;;;26.50;100.00
20752;BME280;10536;51.582;5.016;2022-09-13T08:33:15;101060.91;;;26.00;100.00
20752;BME280;10536;51.582;5.016;2022-09-13T08:38:15;101063.41;;;26.26;100.00
20752;BME280;10536;51.582;5.016;2022-09-13T08:43:31;101063.31;;;25.79;100.00
20752;BME280;10536;51.582;5.016;2022-09-13T08:48:38;101058.47;;;26.79;100.00
20752;BME280;10536;51.582;5.016;2022-09-13T08:53:44;101062.22;;;26.88;100.00
20752;BME280;10536;51.582;5.016;2022-09-13T09:04:10;101051.50;;;26.89;100.00
20752;BME280;10536;51.582;5.016;2022-09-13T09:09:15;101049.53;;;27.14;100.00
20752;BME280;10536;51.582;5.016;2022-09-13T09:14:32;101041.72;;;27.35;100.00
20752;BME280;10536;51.582;5.016;2022-09-13T09:19:54;101038.94;;;27.14;100.00
20752;BME280;10536;51.582;5.016;2022-09-13T09:24:59;101044.59;;;27.32;100.00
20752;BME280;10536;51.582;5.016;2022-09-13T09:30:00;101049.28;;;27.51;100.00
20752;BME280;10536;51.582;5.016;2022-09-13T09:40:21;101055.06;;;28.00;100.00
20752;BME280;10536;51.582;5.016;2022-09-13T09:45:27;101056.38;;;28.05;100.00
20752;BME280;10536;51.582;5.016;2022-09-13T09:50:33;101050.94;;;27.63;100.00
20752;BME280;10536;51.582;5.016;2022-09-13T09:55:44;101044.88;;;27.72;100.00
20752;BME280;10536;51.582;5.016;2022-09-13T10:00:55;101057.41;;;27.82;100.00
20752;BME280;10536;51.582;5.016;2022-09-13T10:06:08;101040.75;;;27.80;100.00
20752;BME280;10536;51.582;5.016;2022-09-13T10:11:10;101036.97;;;27.82;100.00
20752;BME280;10536;51.582;5.016;2022-09-13T10:16:24;101034.25;;;28.26;100.00
20752;BME280;10536;51.582;5.016;2022-09-13T10:21:25;101032.88;;;28.31;100.00
20752;BME280;10536;51.582;5.016;2022-09-13T10:26:26;101027.72;;;28.51;100.00
20752;BME280;10536;51.582;5.016;2022-09-13T10:31:32;101026.13;;;28.48;100.00
20752;BME280;10536;51.582;5.016;2022-09-13T10:36:35;101036.34;;;28.22;100.00
20752;BME280;10536;51.582;5.016;2022-09-13T10:41:38;101031.75;;;28.24;100.00
20752;BME280;10536;51.582;5.016;2022-09-13T10:46:41;101029.84;;;28.57;100.00
20752;BME280;10536;51.582;5.016;2022-09-13T10:51:42;101018.22;;;28.37;100.00
20752;BME280;10536;51.582;5.016;2022-09-13T10:56:43;101009.00;;;28.62;100.00
20752;BME280;10536;51.582;5.016;2022-09-13T11:18:28;100991.50;;;28.39;100.00
20752;BME280;10536;51.582;5.016;2022-09-13T11:34:57;100999.06;;;28.43;100.00
20752;BME280;10536;51.582;5.016;2022-09-13T11:45:25;101002.31;;;28.47;100.00
20752;BME280;10536;51.582;5.016;2022-09-13T11:55:48;100999.72;;;28.35;100.00
20752;BME280;10536;51.582;5.016;2022-09-13T12:00:56;100994.16;;;27.96;100.00
20752;BME280;10536;51.582;5.016;2022-09-13T12:06:11;100995.56;;;28.43;100.00
20752;BME280;10536;51.582;5.016;2022-09-13T12:11:26;100981.84;;;28.16;100.00
20752;BME280;10536;51.582;5.016;2022-09-13T12:16:33;100988.78;;;28.08;100.00
20752;BME280;10536;51.582;5.016;2022-09-13T12:21:38;100985.03;;;28.10;100.00
20752;BME280;10536;51.582;5.016;2022-09-13T12:31:46;100987.72;;;28.41;100.00
20752;BME280;10536;51.582;5.016;2022-09-13T12:47:39;100990.25;;;28.43;100.00
20752;BME280;10536;51.582;5.016;2022-09-13T12:58:35;100981.69;;;28.39;100.00
20752;BME280;10536;51.582;5.016;2022-09-13T13:04:08;100974.28;;;28.64;100.00
20752;BME280;10536;51.582;5.016;2022-09-13T13:09:43;100967.97;;;28.65;100.00
20752;BME280;10536;51.582;5.016;2022-09-13T13:14:46;100973.69;;;28.39;100.00
20752;BME280;10536;51.582;5.016;2022-09-13T13:19:47;100974.03;;;28.77;100.00
20752;BME280;10536;51.582;5.016;2022-09-13T13:24:47;100964.59;;;29.03;100.00
20752;BME280;10536;51.582;5.016;2022-09-13T13:35:29;100959.25;;;29.03;100.00
20752;BME280;10536;51.582;5.016;2022-09-13T13:40:31;100961.84;;;29.24;100.00
20752;BME280;10536;51.582;5.016;2022-09-13T13:45:31;100957.78;;;29.20;100.00
20752;BME280;10536;51.582;5.016;2022-09-13T13:50:32;100960.53;;;28.99;100.00
20752;BME280;10536;51.582;5.016;2022-09-13T14:00:47;100961.66;;;28.97;100.00
20752;BME280;10536;51.582;5.016;2022-09-13T14:21:24;100967.09;;;28.33;100.00
20752;BME280;10536;51.582;5.016;2022-09-13T14:26:25;100961.31;;;28.80;100.00
20752;BME280;10536;51.582;5.016;2022-09-13T14:31:26;100966.72;;;28.59;100.00
20752;BME280;10536;51.582;5.016;2022-09-13T14:36:27;100966.88;;;28.46;100.00
20752;BME280;10536;51.582;5.016;2022-09-13T14:41:37;100968.25;;;29.02;100.00
20752;BME280;10536;51.582;5.016;2022-09-13T14:46:40;100974.06;;;28.86;100.00
20752;BME280;10536;51.582;5.016;2022-09-13T14:51:45;100981.16;;;29.07;100.00
20752;BME280;10536;51.582;5.016;2022-09-13T14:56:53;100976.53;;;29.09;100.00
20752;BME280;10536;51.582;5.016;2022-09-13T15:01:55;100975.69;;;29.08;100.00
20752;BME280;10536;51.582;5.016;2022-09-13T15:07:20;100969.31;;;28.90;100.00
20752;BME280;10536;51.582;5.016;2022-09-13T15:12:24;100966.97;;;28.56;100.00
20752;BME280;10536;51.582;5.016;2022-09-13T15:17:25;100959.28;;;28.11;100.00
20752;BME280;10536;51.582;5.016;2022-09-13T15:22:30;100952.97;;;28.12;100.00
20752;BME280;10536;51.582;5.016;2022-09-13T15:32:42;100949.25;;;27.93;100.00
20752;BME280;10536;51.582;5.016;2022-09-13T15:37:43;100942.13;;;27.62;100.00
20752;BME280;10536;51.582;5.016;2022-09-13T15:42:45;100944.44;;;27.55;100.00
20752;BME280;10536;51.582;5.016;2022-09-13T15:47:50;100953.16;;;27.46;100.00
20752;BME280;10536;51.582;5.016;2022-09-13T15:52:53;100958.44;;;27.02;100.00
20752;BME280;10536;51.582;5.016;2022-09-13T15:57:54;100946.19;;;26.78;100.00
20752;BME280;10536;51.582;5.016;2022-09-13T16:03:09;100946.91;;;26.69;100.00
20752;BME280;10536;51.582;5.016;2022-09-13T16:08:36;100948.44;;;26.38;100.00
20752;BME280;10536;51.582;5.016;2022-09-13T16:13:37;100953.63;;;26.28;100.00
20752;BME280;10536;51.582;5.016;2022-09-13T16:18:37;100961.44;;;26.18;100.00
20752;BME280;10536;51.582;5.016;2022-09-13T16:23:39;100952.16;;;26.24;100.00
20752;BME280;10536;51.582;5.016;2022-09-13T16:28:39;100951.94;;;26.27;100.00
20752;BME280;10536;51.582;5.016;2022-09-13T16:33:39;100950.69;;;26.09;100.00
20752;BME280;10536;51.582;5.016;2022-09-13T16:38:40;100950.69;;;25.73;100.00
20752;BME280;10536;51.582;5.016;2022-09-13T16:43:40;100942.09;;;25.58;100.00
20752;BME280;10536;51.582;5.016;2022-09-13T16:48:41;100940.13;;;25.49;100.00
20752;BME280;10536;51.582;5.016;2022-09-13T16:53:49;100939.59;;;25.20;100.00
20752;BME280;10536;51.582;5.016;2022-09-13T16:58:51;100938.81;;;24.94;100.00
20752;BME280;10536;51.582;5.016;2022-09-13T17:03:53;100935.19;;;24.71;100.00
20752;BME280;10536;51.582;5.016;2022-09-13T17:08:59;100936.66;;;24.36;100.00
20752;BME280;10536;51.582;5.016;2022-09-13T17:14:02;100931.38;;;24.23;100.00
20752;BME280;10536;51.582;5.016;2022-09-13T17:19:06;100934.97;;;24.22;100.00
20752;BME280;10536;51.582;5.016;2022-09-13T17:24:07;100937.38;;;23.87;100.00
20752;BME280;10536;51.582;5.016;2022-09-13T17:29:10;100928.06;;;23.81;100.00
20752;BME280;10536;51.582;5.016;2022-09-13T17:34:11;100927.97;;;23.96;100.00
20752;BME280;10536;51.582;5.016;2022-09-13T17:39:12;100923.22;;;23.61;100.00
20752;BME280;10536;51.582;5.016;2022-09-13T17:44:15;100927.00;;;23.44;100.00
20752;BME280;10536;51.582;5.016;2022-09-13T17:49:15;100925.91;;;23.34;100.00
20752;BME280;10536;51.582;5.016;2022-09-13T17:54:16;100930.47;;;23.17;100.00
20752;BME280;10536;51.582;5.016;2022-09-13T17:59:18;100937.47;;;23.18;100.00
20752;BME280;10536;51.582;5.016;2022-09-13T18:04:21;100937.84;;;22.98;100.00
20752;BME280;10536;51.582;5.016;2022-09-13T18:09:22;100945.38;;;23.04;100.00
20752;BME280;10536;51.582;5.016;2022-09-13T18:14:22;100943.13;;;22.98;100.00
20752;BME280;10536;51.582;5.016;2022-09-13T18:19:25;100928.72;;;22.75;100.00
20752;BME280;10536;51.582;5.016;2022-09-13T18:24:27;100927.50;;;22.80;100.00
20752;BME280;10536;51.582;5.016;2022-09-13T18:29:37;100932.81;;;22.66;100.00
20752;BME280;10536;51.582;5.016;2022-09-13T18:34:38;100940.06;;;22.62;100.00
20752;BME280;10536;51.582;5.016;2022-09-13T18:39:41;100940.81;;;22.50;100.00
20752;BME280;10536;51.582;5.016;2022-09-13T18:44:41;100948.22;;;22.43;100.00
20752;BME280;10536;51.582;5.016;2022-09-13T18:49:42;100935.06;;;22.29;100.00
20752;BME280;10536;51.582;5.016;2022-09-13T18:54:43;100944.28;;;22.51;100.00
20752;BME280;10536;51.582;5.016;2022-09-13T18:59:44;100935.44;;;22.37;100.00
20752;BME280;10536;51.582;5.016;2022-09-13T19:04:44;100956.59;;;22.36;100.00
20752;BME280;10536;51.582;5.016;2022-09-13T19:09:49;100948.06;;;22.02;100.00
20752;BME280;10536;51.582;5.016;2022-09-13T19:14:49;100970.34;;;22.11;100.00
20752;BME280;10536;51.582;5.016;2022-09-13T19:19:50;100973.38;;;22.04;100.00
20752;BME280;10536;51.582;5.016;2022-09-13T19:24:50;100961.69;;;22.08;100.00
20752;BME280;10536;51.582;5.016;2022-09-13T19:29:54;100962.34;;;21.98;100.00
20752;BME280;10536;51.582;5.016;2022-09-13T19:34:54;100966.44;;;22.18;100.00
20752;BME280;10536;51.582;5.016;2022-09-13T19:39:55;100972.25;;;22.08;100.00
20752;BME280;10536;51.582;5.016;2022-09-13T19:44:55;100978.16;;;22.28;100.00
20752;BME280;10536;51.582;5.016;2022-09-13T19:49:55;100981.47;;;22.46;100.00
20752;BME280;10536;51.582;5.016;2022-09-13T19:54:58;100985.84;;;22.17;100.00
20752;BME280;10536;51.582;5.016;2022-09-13T19:59:58;100993.56;;;21.89;100.00
20752;BME280;10536;51.582;5.016;2022-09-13T20:04:59;100999.22;;;21.98;100.00
20752;BME280;10536;51.582;5.016;2022-09-13T20:09:59;100992.16;;;21.98;100.00
20752;BME280;10536;51.582;5.016;2022-09-13T20:15:00;100989.16;;;22.04;100.00
20752;BME280;10536;51.582;5.016;2022-09-13T20:20:10;100990.31;;;21.54;100.00
20752;BME280;10536;51.582;5.016;2022-09-13T20:25:14;100984.09;;;21.55;100.00
20752;BME280;10536;51.582;5.016;2022-09-13T20:30:14;100984.78;;;21.59;100.00
20752;BME280;10536;51.582;5.016;2022-09-13T20:35:15;100976.13;;;21.57;100.00
20752;BME280;10536;51.582;5.016;2022-09-13T20:40:15;100966.78;;;21.19;100.00
20752;BME280;10536;51.582;5.016;2022-09-13T20:45:42;100965.06;;;21.18;100.00
20752;BME280;10536;51.582;5.016;2022-09-13T20:50:42;100967.34;;;21.24;100.00
20752;BME280;10536;51.582;5.016;2022-09-13T20:55:43;100956.25;;;21.19;100.00
20752;BME280;10536;51.582;5.016;2022-09-13T21:00:43;100959.66;;;21.21;100.00
20752;BME280;10536;51.582;5.016;2022-09-13T21:05:43;100960.50;;;21.06;100.00
20752;BME280;10536;51.582;5.016;2022-09-13T21:10:57;100964.47;;;20.97;100.00
20752;BME280;10536;51.582;5.016;2022-09-13T21:16:14;100953.53;;;20.89;100.00
20752;BME280;10536;51.582;5.016;2022-09-13T21:21:17;100955.38;;;20.87;100.00
20752;BME280;10536;51.582;5.016;2022-09-13T21:26:20;100957.59;;;20.95;100.00
20752;BME280;10536;51.582;5.016;2022-09-13T21:31:24;100953.28;;;20.60;100.00
20752;BME280;10536;51.582;5.016;2022-09-13T21:36:28;100975.63;;;20.51;100.00
20752;BME280;10536;51.582;5.016;2022-09-13T21:41:30;100954.50;;;20.20;100.00
20752;BME280;10536;51.582;5.016;2022-09-13T21:46:33;100951.75;;;20.39;100.00
20752;BME280;10536;51.582;5.016;2022-09-13T21:57:32;100957.63;;;20.44;100.00
20752;BME280;10536;51.582;5.016;2022-09-13T22:02:32;100947.50;;;20.54;100.00
20752;BME280;10536;51.582;5.016;2022-09-13T22:07:33;100950.44;;;20.65;100.00
20752;BME280;10536;51.582;5.016;2022-09-13T22:12:33;100954.72;;;20.32;100.00
20752;BME280;10536;51.582;5.016;2022-09-13T22:17:34;100954.31;;;20.40;100.00
20752;BME280;10536;51.582;5.016;2022-09-13T22:22:34;100951.00;;;20.37;100.00
20752;BME280;10536;51.582;5.016;2022-09-13T22:27:35;100954.75;;;20.48;100.00
20752;BME280;10536;51.582;5.016;2022-09-13T22:32:36;100937.03;;;20.69;100.00
20752;BME280;10536;51.582;5.016;2022-09-13T22:37:36;100940.78;;;20.97;100.00
20752;BME280;10536;51.582;5.016;2022-09-13T22:42:37;100940.28;;;20.75;100.00
20752;BME280;10536;51.582;5.016;2022-09-13T22:47:37;100936.88;;;20.73;100.00
20752;BME280;10536;51.582;5.016;2022-09-13T22:52:37;100938.69;;;20.55;100.00
20752;BME280;10536;51.582;5.016;2022-09-13T22:57:38;100930.03;;;20.52;100.00
20752;BME280;10536;51.582;5.016;2022-09-13T23:02:38;100924.22;;;20.30;100.00
20752;BME280;10536;51.582;5.016;2022-09-13T23:07:39;100912.06;;;20.45;100.00
20752;BME280;10536;51.582;5.016;2022-09-13T23:12:39;100911.22;;;20.27;100.00
20752;BME280;10536;51.582;5.016;2022-09-13T23:17:39;100915.16;;;20.36;100.00
20752;BME280;10536;51.582;5.016;2022-09-13T23:22:40;100912.00;;;20.29;100.00
20752;BME280;10536;51.582;5.016;2022-09-13T23:27:40;100908.88;;;20.38;100.00
20752;BME280;10536;51.582;5.016;2022-09-13T23:32:41;100894.75;;;20.41;100.00
20752;BME280;10536;51.582;5.016;2022-09-13T23:37:42;100896.28;;;20.45;100.00
20752;BME280;10536;51.582;5.016;2022-09-13T23:42:42;100896.19;;;20.46;100.00
20752;BME280;10536;51.582;5.016;2022-09-13T23:47:43;100904.69;;;20.51;100.00
20752;BME280;10536;51.582;5.016;2022-09-13T23:52:43;100895.94;;;20.35;100.00
20752;BME280;10536;51.582;5.016;2022-09-13T23:57:44;100898.91;;;20.11;100.00
